Time;durP1;ratioP1;P1;durP2;ratioP2;P2;SDS_P1;SDS_P2;PMS_P1;PMS_P2;Temp;Humidity;BMP_temperature;BMP_pressure;BME280_temperature;BME280_humidity;BME280_pressure;Samples;Min_cycle;Max_cycle;Signal;HPM_P1;HPM_P2
2022/05/27 00:02:24;;;;;;;1.85;1.60;;;14.40;97.20;;;;;;5082655;28;20052;-81
2022/05/27 00:04:50;;;;;;;5.03;1.50;;;14.40;97.50;;;;;;5079455;28;20031;-83
2022/05/27 00:07:15;;;;;;;1.73;1.58;;;14.40;97.40;;;;;;5087604;28;20017;-81
2022/05/27 00:09:41;;;;;;;2.60;1.40;;;14.40;97.50;;;;;;5080928;28;20032;-81
2022/05/27 00:12:07;;;;;;;2.88;1.45;;;14.40;97.60;;;;;;5078481;28;20095;-81
2022/05/27 00:14:33;;;;;;;3.95;1.45;;;14.40;97.50;;;;;;5078582;28;20490;-81
2022/05/27 00:16:59;;;;;;;1.50;1.40;;;14.30;97.40;;;;;;5078890;28;20021;-81
2022/05/27 00:19:24;;;;;;;1.13;1.02;;;14.30;97.40;;;;;;5079287;28;20080;-81
2022/05/27 00:21:50;;;;;;;1.55;1.45;;;14.30;97.50;;;;;;5078138;28;20029;-82
2022/05/27 00:24:16;;;;;;;2.05;1.30;;;14.30;97.70;;;;;;5060771;28;20020;-82
2022/05/27 00:26:42;;;;;;;2.38;1.30;;;14.30;98.00;;;;;;5078439;28;20456;-82
2022/05/27 00:29:07;;;;;;;2.25;1.50;;;14.20;98.00;;;;;;5078772;28;20028;-82
2022/05/27 00:31:33;;;;;;;2.83;1.35;;;14.20;98.20;;;;;;5077632;28;20082;-82
2022/05/27 00:33:59;;;;;;;1.42;1.23;;;14.20;98.30;;;;;;5076365;28;20079;-82
2022/05/27 00:36:25;;;;;;;2.55;1.20;;;14.10;98.40;;;;;;5085206;28;20016;-82
2022/05/27 00:38:50;;;;;;;1.73;1.63;;;14.10;98.50;;;;;;5089282;28;20023;-82
2022/05/27 00:41:16;;;;;;;1.50;1.38;;;14.00;98.70;;;;;;5092209;28;20029;-82
2022/05/27 00:43:43;;;;;;;3.05;1.42;;;14.00;98.80;;;;;;5075397;28;20029;-82
2022/05/27 00:46:29;;;;;;;1.55;1.45;;;13.90;98.80;;;;;;5075269;28;20421;-82
2022/05/27 00:49:03;;;;;;;3.70;1.50;;;13.90;99.00;;;;;;5060290;28;20365;-82
2022/05/27 00:51:33;;;;;;;2.67;1.52;;;13.90;99.00;;;;;;5078305;28;20055;-82
2022/05/27 00:54:10;;;;;;;1.38;1.23;;;13.90;99.20;;;;;;5059305;28;20029;-82
2022/05/27 00:56:40;;;;;;;1.70;1.20;;;13.80;99.20;;;;;;5061186;28;20025;-81
2022/05/27 00:59:12;;;;;;;1.80;1.10;;;13.80;99.30;;;;;;5079267;28;20021;-82
2022/05/27 01:01:38;;;;;;;3.30;1.27;;;13.80;99.20;;;;;;5078761;28;20090;-80
2022/05/27 01:04:05;;;;;;;1.52;1.15;;;13.70;99.20;;;;;;5079702;28;20032;-81
2022/05/27 01:06:31;;;;;;;1.20;1.10;;;13.70;99.20;;;;;;5069079;28;20476;-82
2022/05/27 01:08:56;;;;;;;1.40;1.25;;;13.70;99.30;;;;;;5092712;28;20158;-82
2022/05/27 01:11:28;;;;;;;1.13;1.02;;;13.70;99.40;;;;;;5079403;28;20027;-82
2022/05/27 01:14:16;;;;;;;0.95;0.90;;;13.60;99.50;;;;;;5080756;28;20048;-80
2022/05/27 01:16:55;;;;;;;1.23;1.00;;;13.60;99.70;;;;;;5077609;28;20485;-80
2022/05/27 01:20:21;;;;;;;0.80;0.80;;;13.60;99.80;;;;;;5077997;28;20029;-81
2022/05/27 01:22:59;;;;;;;2.63;1.33;;;13.60;99.90;;;;;;5060046;28;20019;-81
2022/05/27 01:25:59;;;;;;;2.35;0.93;;;13.60;99.90;;;;;;5060460;28;20029;-82
2022/05/27 01:28:56;;;;;;;1.23;0.90;;;13.60;99.90;;;;;;5077930;28;20039;-82
2022/05/27 01:31:39;;;;;;;1.42;1.17;;;13.60;99.90;;;;;;5077825;28;20495;-81
2022/05/27 01:34:11;;;;;;;1.33;1.23;;;13.60;99.90;;;;;;5079168;28;20350;-82
2022/05/27 01:36:44;;;;;;;;;;;13.70;99.90;;;;;;5053795;28;20117;-82
2022/05/27 01:39:29;;;;;;;2.08;1.00;;;13.60;99.90;;;;;;5064702;28;19909;-81
2022/05/27 01:42:25;;;;;;;0.80;0.80;;;13.60;99.90;;;;;;5077767;28;20445;-82
2022/05/27 01:44:54;;;;;;;2.67;1.60;;;13.60;99.90;;;;;;5060000;28;20047;-81
2022/05/27 01:47:34;;;;;;;1.50;1.20;;;13.50;99.90;;;;;;5059903;28;20037;-83
2022/05/27 01:50:05;;;;;;;2.17;1.25;;;13.50;99.90;;;;;;5059935;28;20033;-81
2022/05/27 01:52:44;;;;;;;2.03;1.60;;;13.40;99.90;;;;;;5078433;28;20037;-81
2022/05/27 01:55:19;;;;;;;1.23;1.10;;;13.30;99.90;;;;;;5077753;28;20040;-82
2022/05/27 01:58:05;;;;;;;1.58;1.45;;;13.20;99.90;;;;;;5059499;28;20112;-81
2022/05/27 02:00:31;;;;;;;2.40;1.00;;;13.10;99.90;;;;;;5079789;28;20025;-81
2022/05/27 02:03:12;;;;;;;1.88;1.52;;;13.20;99.90;;;;;;5065020;28;20248;-81
2022/05/27 02:05:57;;;;;;;1.83;1.30;;;13.10;99.90;;;;;;5060532;28;20017;-79
2022/05/27 02:08:28;;;;;;;2.35;1.50;;;13.10;99.90;;;;;;5084180;28;20027;-80
2022/05/27 02:11:10;;;;;;;3.50;1.50;;;13.10;99.90;;;;;;5080364;28;20024;-80
2022/05/27 02:13:45;;;;;;;1.92;1.58;;;13.10;99.90;;;;;;5077524;28;20383;-81
2022/05/27 02:16:20;;;;;;;1.83;1.23;;;13.00;99.90;;;;;;5086054;28;20376;-80
2022/05/27 02:18:49;;;;;;;1.60;1.27;;;13.00;99.90;;;;;;5073074;28;20096;-78
2022/05/27 02:21:24;;;;;;;2.50;1.10;;;13.00;99.90;;;;;;5091743;28;20040;-79
2022/05/27 02:24:00;;;;;;;2.15;1.35;;;13.00;99.90;;;;;;5092378;28;20104;-81
2022/05/27 02:26:31;;;;;;;2.42;1.40;;;12.90;99.90;;;;;;5086003;28;20081;-81
2022/05/27 02:29:10;;;;;;;1.13;1.02;;;12.90;99.90;;;;;;5082043;28;20208;-80
2022/05/27 02:31:40;;;;;;;1.55;1.45;;;12.90;99.90;;;;;;5079328;28;20108;-80
2022/05/27 02:37:22;;;;;;;1.33;1.05;;;13.10;99.90;;;;;;5114912;28;20059;-81
2022/05/27 02:39:51;;;;;;;1.83;1.35;;;13.10;99.90;;;;;;5073678;28;20021;-80
2022/05/27 02:42:31;;;;;;;1.80;0.85;;;13.20;99.90;;;;;;5062764;28;20449;-79
2022/05/27 02:45:22;;;;;;;1.00;1.00;;;13.30;99.90;;;;;;5080493;28;20025;-80
2022/05/27 02:48:14;;;;;;;1.00;0.90;;;13.30;99.90;;;;;;5084806;28;20020;-80
2022/05/27 02:50:46;;;;;;;1.33;1.02;;;13.50;99.90;;;;;;5081549;28;20377;-80
2022/05/27 02:53:47;;;;;;;1.48;0.77;;;13.60;99.90;;;;;;5082196;28;20025;-80
2022/05/27 02:56:15;;;;;;;0.88;0.85;;;13.70;99.90;;;;;;5084064;28;20043;-80
2022/05/27 02:58:41;;;;;;;0.95;0.80;;;13.80;99.90;;;;;;5082089;28;20103;-82
2022/05/27 03:01:08;;;;;;;1.00;1.00;;;14.00;99.90;;;;;;5083103;28;20020;-78
2022/05/27 03:03:34;;;;;;;1.42;0.88;;;14.10;99.80;;;;;;5082231;28;20032;-80
2022/05/27 03:06:03;;;;;;;1.02;0.90;;;14.10;99.30;;;;;;5087988;28;20032;-80
2022/05/27 03:08:51;;;;;;;0.98;0.80;;;14.20;99.10;;;;;;5092747;28;20041;-80
2022/05/27 03:11:53;;;;;;;1.80;0.90;;;14.30;98.50;;;;;;5100256;28;20077;-82
2022/05/27 03:14:37;;;;;;;0.80;0.80;;;14.30;98.10;;;;;;5080716;28;20165;-79
2022/05/27 03:17:35;;;;;;;0.80;0.80;;;14.40;97.90;;;;;;5079901;28;20075;-83
2022/05/27 03:20:04;;;;;;;1.42;1.08;;;14.40;97.70;;;;;;5080217;28;20016;-81
2022/05/27 03:22:38;;;;;;;1.00;0.68;;;14.40;97.40;;;;;;5081740;28;20408;-82
2022/05/27 03:25:33;;;;;;;1.42;0.90;;;14.50;97.30;;;;;;5065365;28;20049;-82
2022/05/27 03:28:10;;;;;;;0.90;0.90;;;14.50;97.10;;;;;;5045378;28;20578;-80
2022/05/27 03:30:47;;;;;;;3.08;1.10;;;14.50;96.80;;;;;;5060418;28;20025;-81
2022/05/27 03:33:28;;;;;;;1.27;0.98;;;14.50;96.70;;;;;;5044045;28;20027;-82
2022/05/27 03:36:05;;;;;;;2.22;1.05;;;14.60;96.60;;;;;;5069252;28;20142;-79
2022/05/27 03:39:06;;;;;;;1.92;0.70;;;14.60;96.40;;;;;;5089409;28;20043;-79
2022/05/27 03:41:49;;;;;;;1.08;0.60;;;14.60;96.30;;;;;;5015198;28;20091;-80
2022/05/27 03:44:20;;;;;;;1.85;0.82;;;14.60;96.20;;;;;;5080643;28;20039;-80
2022/05/27 03:46:50;;;;;;;1.48;0.90;;;14.60;96.30;;;;;;5061843;28;20025;-80
2022/05/27 03:49:15;;;;;;;1.70;0.80;;;14.60;96.50;;;;;;5080292;28;20122;-80
2022/05/27 03:52:05;;;;;;;0.95;0.85;;;14.50;96.60;;;;;;5079423;28;20032;-80
2022/05/27 03:54:31;;;;;;;0.63;0.63;;;14.50;96.70;;;;;;5078913;28;20338;-79
2022/05/27 03:56:57;;;;;;;1.02;0.82;;;14.50;96.90;;;;;;5078632;28;20050;-79
2022/05/27 03:59:24;;;;;;;1.13;1.02;;;14.60;97.00;;;;;;5061541;28;20027;-82
2022/05/27 04:01:52;;;;;;;1.77;1.05;;;14.60;96.90;;;;;;5079129;28;20062;-81
2022/05/27 04:04:23;;;;;;;2.83;1.08;;;14.60;96.90;;;;;;5061248;28;20028;-82
2022/05/27 04:06:49;;;;;;;2.42;1.02;;;14.60;96.90;;;;;;5088989;28;20021;-82
2022/05/27 04:09:17;;;;;;;1.50;0.80;;;14.60;96.80;;;;;;5097219;28;20043;-82
2022/05/27 04:11:43;;;;;;;1.40;0.98;;;14.60;96.80;;;;;;5100551;28;20104;-82
2022/05/27 04:14:10;;;;;;;1.48;0.98;;;14.60;97.00;;;;;;5100963;28;20532;-82
2022/05/27 04:16:36;;;;;;;0.70;0.70;;;14.70;97.00;;;;;;5062601;28;20049;-82
2022/05/27 04:19:02;;;;;;;1.15;0.90;;;14.70;96.90;;;;;;5080407;28;20028;-81
2022/05/27 04:21:28;;;;;;;0.70;0.70;;;14.70;96.80;;;;;;5079953;28;20076;-81
2022/05/27 04:23:54;;;;;;;0.80;0.80;;;14.80;96.70;;;;;;5080432;28;20043;-82
2022/05/27 04:26:20;;;;;;;1.20;1.10;;;14.80;96.60;;;;;;5064171;28;20032;-80
2022/05/27 04:28:46;;;;;;;1.73;0.90;;;14.80;96.60;;;;;;5068781;28;20472;-81
2022/05/27 04:31:12;;;;;;;1.67;1.13;;;14.90;96.50;;;;;;5084053;28;20028;-80
2022/05/27 04:33:38;;;;;;;1.30;1.02;;;14.90;96.40;;;;;;5087963;28;20016;-82
2022/05/27 04:36:04;;;;;;;1.50;1.05;;;14.90;96.30;;;;;;5062453;28;20024;-82
2022/05/27 04:38:30;;;;;;;0.82;0.82;;;15.00;96.30;;;;;;5069707;28;20072;-81
2022/05/27 04:40:57;;;;;;;0.68;0.68;;;15.00;96.20;;;;;;5060966;28;20056;-81
2022/05/27 04:43:23;;;;;;;1.10;0.70;;;15.10;96.20;;;;;;5078755;28;20013;-81
2022/05/27 04:45:49;;;;;;;3.55;1.48;;;15.10;96.00;;;;;;5061233;28;20070;-82
2022/05/27 04:48:18;;;;;;;1.20;1.10;;;15.20;95.80;;;;;;5061853;28;20430;-82
2022/05/27 04:50:44;;;;;;;1.52;1.23;;;15.20;95.60;;;;;;5061653;28;20024;-82
2022/05/27 04:53:10;;;;;;;1.33;1.20;;;15.30;95.50;;;;;;5079157;28;20111;-82
2022/05/27 04:55:38;;;;;;;1.70;0.80;;;15.40;95.40;;;;;;5080262;28;20481;-81
2022/05/27 04:58:04;;;;;;;2.00;0.90;;;15.40;95.30;;;;;;5062009;28;20024;-82
2022/05/27 05:00:49;;;;;;;1.33;1.10;;;15.50;95.00;;;;;;5079721;28;20603;-81
2022/05/27 05:03:16;;;;;;;0.95;0.90;;;15.50;95.00;;;;;;5060327;28;20051;-82
2022/05/27 05:05:42;;;;;;;1.80;0.90;;;15.60;95.00;;;;;;5069222;28;20031;-82
2022/05/27 05:08:15;;;;;;;3.75;1.17;;;15.60;94.90;;;;;;5092285;28;20008;-82
2022/05/27 05:10:41;;;;;;;1.92;1.10;;;15.70;94.80;;;;;;5099861;28;20024;-82
2022/05/27 05:13:07;;;;;;;1.48;1.10;;;15.70;94.80;;;;;;5080989;28;20021;-82
2022/05/27 05:15:33;;;;;;;1.00;0.90;;;15.70;94.70;;;;;;5081745;28;20024;-82
2022/05/27 05:17:59;;;;;;;1.08;0.98;;;15.90;94.60;;;;;;5080181;28;20035;-82
2022/05/27 05:20:29;;;;;;;1.92;1.40;;;15.80;94.50;;;;;;5061481;28;20025;-82
2022/05/27 05:22:55;;;;;;;2.03;0.90;;;15.90;94.50;;;;;;5079153;28;20028;-82
2022/05/27 05:25:23;;;;;;;1.13;0.93;;;16.00;94.30;;;;;;5080028;28;20036;-82
2022/05/27 05:27:49;;;;;;;1.23;0.88;;;16.20;94.10;;;;;;5080024;28;20016;-83
2022/05/27 05:30:17;;;;;;;2.30;1.38;;;16.70;93.80;;;;;;5061221;28;20025;-82
2022/05/27 05:32:43;;;;;;;0.60;0.60;;;18.00;91.40;;;;;;5079932;28;20036;-83
2022/05/27 05:35:10;;;;;;;0.77;0.77;;;19.30;89.00;;;;;;5061760;28;20389;-82
2022/05/27 05:37:36;;;;;;;2.80;0.63;;;21.90;81.50;;;;;;5083205;28;20043;-82
2022/05/27 05:40:03;;;;;;;1.40;1.10;;;23.70;70.70;;;;;;5079328;28;20013;-83
2022/05/27 05:42:28;;;;;;;1.17;0.80;;;24.20;65.30;;;;;;5060724;28;20020;-82
2022/05/27 05:44:55;;;;;;;0.55;0.55;;;26.00;61.50;;;;;;5084393;28;20017;-82
2022/05/27 05:47:21;;;;;;;0.75;0.75;;;26.60;57.90;;;;;;5084464;28;20024;-82
2022/05/27 05:49:47;;;;;;;1.70;0.85;;;27.60;55.10;;;;;;5085252;28;20052;-83
2022/05/27 05:52:13;;;;;;;2.72;0.63;;;29.00;52.10;;;;;;5052131;22;20054;-78
2022/05/27 05:54:39;;;;;;;1.77;0.73;;;30.00;49.90;;;;;;5020799;28;20071;-80
2022/05/27 05:57:05;;;;;;;0.80;0.80;;;30.70;47.40;;;;;;5035123;28;20446;-80
2022/05/27 05:59:33;;;;;;;1.02;0.93;;;31.30;46.60;;;;;;5020425;28;20050;-80
2022/05/27 06:02:00;;;;;;;0.65;0.65;;;32.10;45.00;;;;;;5020832;28;20027;-79
2022/05/27 06:04:27;;;;;;;0.88;0.88;;;32.60;43.80;;;;;;5001961;28;20414;-81
2022/05/27 06:06:53;;;;;;;1.48;1.20;;;33.00;42.40;;;;;;5007238;28;20018;-78
2022/05/27 06:09:25;;;;;;;0.90;0.80;;;33.30;42.00;;;;;;5015615;28;20121;-79
2022/05/27 06:11:55;;;;;;;1.08;1.08;;;33.70;41.40;;;;;;5013872;28;20018;-80
2022/05/27 06:14:21;;;;;;;0.82;0.82;;;34.00;41.10;;;;;;4999232;28;20022;-80
2022/05/27 06:16:47;;;;;;;0.90;0.90;;;34.40;40.70;;;;;;4999849;28;20100;-80
2022/05/27 06:19:13;;;;;;;1.35;1.02;;;34.70;39.60;;;;;;5000735;28;20027;-80
2022/05/27 06:21:39;;;;;;;1.27;0.90;;;34.80;38.60;;;;;;4999573;28;20368;-80
2022/05/27 06:24:05;;;;;;;2.28;0.90;;;34.40;38.80;;;;;;5000723;28;20030;-80
2022/05/27 06:26:30;;;;;;;1.60;1.00;;;34.50;38.90;;;;;;5001305;28;20057;-79
2022/05/27 06:34:25;;;;;;;1.00;1.00;;;34.90;38.20;;;;;;5001419;28;20042;-80
2022/05/27 06:37:01;;;;;;;1.75;0.80;;;34.60;38.50;;;;;;5007445;28;20006;-80
2022/05/27 06:39:28;;;;;;;0.75;0.70;;;34.50;38.20;;;;;;5015705;28;20030;-80
2022/05/27 06:41:54;;;;;;;0.73;0.73;;;34.40;38.70;;;;;;5018560;28;20443;-80
2022/05/27 06:44:21;;;;;;;1.77;1.05;;;34.60;38.20;;;;;;5018929;28;20025;-79
2022/05/27 06:46:50;;;;;;;0.85;0.82;;;34.60;38.10;;;;;;5013810;28;20030;-79
2022/05/27 06:49:17;;;;;;;2.47;1.02;;;34.40;38.10;;;;;;5001025;28;20048;-80
2022/05/27 06:51:43;;;;;;;0.80;0.80;;;34.10;37.60;;;;;;5011528;28;20070;-80
2022/05/27 06:54:09;;;;;;;1.52;1.10;;;33.60;38.30;;;;;;5019577;28;20030;-81
2022/05/27 06:56:36;;;;;;;1.25;0.80;;;33.60;37.80;;;;;;5001476;28;20022;-80
2022/05/27 06:59:03;;;;;;;0.90;0.60;;;33.30;38.80;;;;;;5020656;28;20022;-78
2022/05/27 07:01:29;;;;;;;2.50;0.77;;;33.40;39.00;;;;;;5019451;28;20030;-80
2022/05/27 07:03:55;;;;;;;0.68;0.68;;;33.60;38.40;;;;;;5020039;28;20025;-80
2022/05/27 07:06:31;;;;;;;2.47;1.13;;;33.20;38.60;;;;;;5023723;28;20032;-80
2022/05/27 07:08:59;;;;;;;1.48;0.90;;;32.90;39.10;;;;;;5029144;28;20117;-78
2022/05/27 07:11:25;;;;;;;1.88;0.80;;;31.30;39.50;;;;;;5024430;28;20037;-80
2022/05/27 07:13:51;;;;;;;1.05;0.93;;;28.00;42.80;;;;;;5005045;28;20022;-81
2022/05/27 07:16:16;;;;;;;0.90;0.88;;;25.40;47.10;;;;;;5021353;28;20033;-79
2022/05/27 07:18:42;;;;;;;1.27;0.73;;;23.30;51.40;;;;;;5025366;28;20034;-80
2022/05/27 07:21:08;;;;;;;4.20;1.35;;;21.90;54.80;;;;;;5023621;28;20026;-80
2022/05/27 07:23:34;;;;;;;1.85;1.00;;;20.80;58.00;;;;;;5021514;28;20025;-80
2022/05/27 07:26:00;;;;;;;3.47;1.83;;;20.20;60.40;;;;;;5023546;28;20044;-80
2022/05/27 07:28:26;;;;;;;3.20;1.02;;;19.70;62.10;;;;;;5024685;28;20040;-81
2022/05/27 07:30:53;;;;;;;2.65;1.10;;;19.40;63.30;;;;;;5023247;28;20022;-80
2022/05/27 07:33:20;;;;;;;2.45;0.70;;;19.30;64.30;;;;;;5023161;28;20052;-78
2022/05/27 07:35:46;;;;;;;1.58;0.70;;;19.30;64.40;;;;;;5027275;28;20015;-79
2022/05/27 07:38:12;;;;;;;2.13;0.73;;;19.30;64.60;;;;;;5035739;28;20049;-79
2022/05/27 07:40:38;;;;;;;2.67;0.80;;;19.30;64.30;;;;;;5024161;28;20022;-80
2022/05/27 07:43:07;;;;;;;1.50;1.05;;;19.30;64.90;;;;;;5024087;28;20026;-82
2022/05/27 07:45:39;;;;;;;2.50;1.10;;;19.30;65.70;;;;;;5025064;28;20025;-81
2022/05/27 07:48:04;;;;;;;;;;;19.50;65.70;;;;;;5025421;28;20081;-79
2022/05/27 07:50:30;;;;;;;1.65;1.50;;;19.80;64.90;;;;;;5024142;28;19905;-80
2022/05/27 07:52:56;;;;;;;3.28;0.93;;;20.10;64.40;;;;;;5024073;28;20046;-80
2022/05/27 07:55:22;;;;;;;2.00;0.80;;;20.30;63.70;;;;;;5026636;28;20047;-79
2022/05/27 07:57:48;;;;;;;1.45;0.75;;;20.60;63.30;;;;;;5033603;28;20037;-79
2022/05/27 08:00:21;;;;;;;1.40;0.50;;;20.90;62.90;;;;;;5034227;28;20037;-78
2022/05/27 08:02:47;;;;;;;2.10;0.85;;;21.00;62.30;;;;;;5034019;28;20033;-80
2022/05/27 08:05:16;;;;;;;4.40;1.10;;;21.00;62.20;;;;;;5014105;28;20030;-81
2022/05/27 08:07:42;;;;;;;3.55;1.00;;;21.10;62.00;;;;;;5034916;28;20018;-79
2022/05/27 08:10:10;;;;;;;3.00;0.85;;;21.00;62.40;;;;;;5041144;28;20404;-79
2022/05/27 08:12:36;;;;;;;0.93;0.70;;;21.00;62.60;;;;;;5036260;28;20093;-79
2022/05/27 08:15:02;;;;;;;1.75;1.02;;;21.00;62.40;;;;;;5005103;28;20029;-80
2022/05/27 08:17:28;;;;;;;5.43;1.17;;;21.10;62.00;;;;;;5023411;28;20025;-80
2022/05/27 08:19:54;;;;;;;2.55;1.38;;;21.00;62.10;;;;;;5019234;28;20044;-79
2022/05/27 08:22:20;;;;;;;1.17;0.75;;;21.00;62.00;;;;;;5022015;28;20100;-78
2022/05/27 08:24:45;;;;;;;3.25;0.90;;;21.10;62.30;;;;;;5021606;28;20093;-79
2022/05/27 08:27:12;;;;;;;2.92;0.90;;;21.20;61.90;;;;;;5020923;28;20026;-80
2022/05/27 08:29:37;;;;;;;2.05;0.90;;;21.20;62.10;;;;;;5002782;28;20033;-80
2022/05/27 08:32:04;;;;;;;2.80;1.20;;;21.10;62.10;;;;;;5022209;28;20030;-78
2022/05/27 08:40:30;;;;;;;3.08;0.95;;;21.30;62.30;;;;;;5021661;28;20438;-80
2022/05/27 08:43:23;;;;;;;1.70;0.85;;;21.50;61.30;;;;;;5021364;28;20025;-80
2022/05/27 08:46:30;;;;;;;2.00;1.02;;;21.60;60.90;;;;;;4990183;28;20034;-80
2022/05/27 08:49:01;;;;;;;1.90;1.50;;;21.60;60.90;;;;;;4981554;28;20493;-80
2022/05/27 08:51:40;;;;;;;2.27;1.20;;;21.70;60.90;;;;;;5012844;28;20042;-78
2022/05/27 08:54:21;;;;;;;3.22;1.10;;;21.80;61.30;;;;;;5020788;28;20603;-78
2022/05/27 08:59:40;;;;;;;1.73;1.00;;;22.50;58.80;;;;;;5021449;28;20037;-80
2022/05/27 09:02:18;;;;;;;1.73;0.95;;;23.00;57.10;;;;;;5018641;28;20049;-79
2022/05/27 09:04:44;;;;;;;2.30;1.60;;;23.30;56.90;;;;;;5018075;28;20439;-79
2022/05/27 09:07:41;;;;;;;1.92;1.05;;;23.20;56.00;;;;;;5028437;28;20056;-79
2022/05/27 09:10:28;;;;;;;3.58;1.27;;;22.70;57.30;;;;;;5000462;28;20030;-79
2022/05/27 09:13:02;;;;;;;1.88;1.10;;;22.40;58.40;;;;;;5002038;28;20479;-80
2022/05/27 09:15:59;;;;;;;1.92;0.80;;;22.40;58.00;;;;;;5014539;28;20034;-78
2022/05/27 09:18:47;;;;;;;2.33;0.98;;;22.20;58.50;;;;;;5000155;28;20487;-79
2022/05/27 09:21:22;;;;;;;1.17;0.80;;;22.00;58.90;;;;;;4988288;28;20180;-79
2022/05/27 09:24:11;;;;;;;2.63;0.88;;;22.20;59.20;;;;;;5006763;28;20025;-79
2022/05/27 09:27:20;;;;;;;3.92;0.98;;;22.30;58.40;;;;;;5019701;28;20438;-78
2022/05/27 09:29:58;;;;;;;4.53;1.63;;;22.20;58.60;;;;;;4977215;28;20038;-77
2022/05/27 09:32:42;;;;;;;1.88;0.98;;;21.80;60.40;;;;;;5020408;28;20018;-78
2022/05/27 09:35:13;;;;;;;2.78;1.20;;;21.60;59.90;;;;;;5021657;28;20040;-81
2022/05/27 09:37:43;;;;;;;3.35;1.35;;;21.90;60.30;;;;;;5032100;28;20078;-80
2022/05/27 09:40:28;;;;;;;4.30;1.70;;;22.70;59.30;;;;;;5037717;28;20021;-79
2022/05/27 09:43:06;;;;;;;2.40;1.05;;;23.30;56.80;;;;;;5021001;28;20029;-81
2022/05/27 09:45:32;;;;;;;3.80;1.77;;;23.20;56.80;;;;;;5020637;28;20033;-81
2022/05/27 09:48:01;;;;;;;5.22;0.90;;;23.10;56.80;;;;;;5021171;28;20030;-79
2022/05/27 09:50:34;;;;;;;3.40;1.15;;;23.40;56.60;;;;;;5020899;28;20060;-79
2022/05/27 09:53:01;;;;;;;2.67;1.25;;;23.60;55.90;;;;;;5028488;28;20014;-76
2022/05/27 09:55:43;;;;;;;2.20;0.85;;;23.30;56.90;;;;;;5031406;28;20038;-79
2022/05/27 09:58:09;;;;;;;1.33;0.80;;;23.30;56.80;;;;;;5031778;28;20084;-78
2022/05/27 10:00:43;;;;;;;2.97;0.90;;;23.60;55.10;;;;;;5030988;28;20077;-79
2022/05/27 10:03:30;;;;;;;3.40;1.00;;;23.60;55.50;;;;;;5033177;28;20025;-80
2022/05/27 10:06:25;;;;;;;1.98;0.90;;;23.60;55.30;;;;;;5035036;28;20025;-79
2022/05/27 10:08:59;;;;;;;4.32;1.08;;;23.70;54.80;;;;;;5022376;28;20164;-78
2022/05/27 10:11:28;;;;;;;1.20;0.90;;;23.80;54.90;;;;;;5030144;28;20026;-77
2022/05/27 10:14:10;;;;;;;1.77;0.88;;;24.00;54.30;;;;;;5028028;28;20053;-78
2022/05/27 10:16:39;;;;;;;3.75;0.95;;;23.90;54.10;;;;;;5029744;28;20029;-78
2022/05/27 10:19:13;;;;;;;2.05;1.40;;;23.50;54.80;;;;;;5028308;28;20104;-79
2022/05/27 10:21:58;;;;;;;2.20;0.98;;;23.30;55.60;;;;;;5029352;28;20028;-78
2022/05/27 10:24:43;;;;;;;0.68;0.68;;;23.40;56.20;;;;;;5028171;28;20056;-79
2022/05/27 10:27:17;;;;;;;1.63;0.93;;;23.60;55.50;;;;;;5021286;28;20037;-82
2022/05/27 10:30:07;;;;;;;1.60;0.80;;;23.50;55.30;;;;;;5022001;28;20037;-80
2022/05/27 10:32:44;;;;;;;2.55;0.90;;;23.40;55.90;;;;;;5020102;28;20095;-81
2022/05/27 10:35:32;;;;;;;0.70;0.68;;;23.40;56.10;;;;;;5020992;28;20026;-80
2022/05/27 10:38:29;;;;;;;2.05;0.68;;;23.40;56.20;;;;;;5029418;28;20029;-80
2022/05/27 10:41:07;;;;;;;1.13;0.88;;;23.50;55.40;;;;;;5021967;28;20041;-80
2022/05/27 10:44:03;;;;;;;1.45;0.65;;;23.80;54.30;;;;;;5021942;28;20029;-81
2022/05/27 10:46:38;;;;;;;1.58;0.82;;;24.20;53.70;;;;;;5023766;28;20022;-79
2022/05/27 10:49:08;;;;;;;0.82;0.70;;;24.70;53.40;;;;;;5022737;28;20030;-79
2022/05/27 10:51:58;;;;;;;1.75;1.02;;;25.50;51.50;;;;;;5022594;28;20085;-80
2022/05/27 10:54:45;;;;;;;0.88;0.77;;;25.80;50.70;;;;;;5024556;28;20041;-79
2022/05/27 11:03:57;;;;;;;2.60;0.82;;;25.60;50.50;;;;;;5023562;28;20117;-80
2022/05/27 11:07:06;;;;;;;1.20;1.10;;;25.60;50.90;;;;;;5025242;28;20057;-81
2022/05/27 11:09:51;;;;;;;3.10;1.00;;;25.80;50.40;;;;;;5025026;28;20069;-80
2022/05/27 11:15:10;;;;;;;4.30;1.48;;;25.70;50.70;;;;;;5022125;28;20026;-77
2022/05/27 11:15:35;;;;;;;3.45;1.00;;;25.50;51.00;;;;;;5023083;28;20529;-80
2022/05/27 11:18:09;;;;;;;1.40;0.70;;;25.30;51.40;;;;;;5024784;28;20034;-80
2022/05/27 11:21:16;;;;;;;2.15;0.98;;;25.10;51.80;;;;;;5023018;28;20033;-79
2022/05/27 11:23:59;;;;;;;2.72;1.08;;;25.10;52.20;;;;;;5022643;28;20026;-79
2022/05/27 11:26:49;;;;;;;1.65;0.90;;;24.80;52.30;;;;;;5007065;28;20025;-80
2022/05/27 11:30:01;;;;;;;1.08;0.85;;;24.30;53.50;;;;;;5005952;28;20030;-80
2022/05/27 11:32:49;;;;;;;2.85;1.27;;;23.80;54.70;;;;;;5026294;28;20022;-81
2022/05/27 11:35:29;;;;;;;4.78;1.00;;;23.80;54.40;;;;;;5026865;28;20029;-80
2022/05/27 11:37:58;;;;;;;1.42;0.70;;;24.00;53.60;;;;;;5017854;28;20024;-80
2022/05/27 11:41:07;;;;;;;0.75;0.65;;;24.00;53.80;;;;;;5044028;28;20030;-80
2022/05/27 11:43:47;;;;;;;2.03;0.77;;;24.30;53.40;;;;;;5005215;28;20073;-80
2022/05/27 11:46:43;;;;;;;1.98;0.90;;;24.80;53.00;;;;;;5006136;28;20082;-79
2022/05/27 11:49:53;;;;;;;3.75;1.10;;;25.40;51.50;;;;;;5008731;28;20019;-80
2022/05/27 11:52:40;;;;;;;1.33;1.10;;;25.80;50.40;;;;;;5070009;23;20045;-81
2022/05/27 11:55:37;;;;;;;0.90;0.70;;;25.60;50.10;;;;;;5040976;28;20033;-83
2022/05/27 11:58:21;;;;;;;4.82;1.17;;;25.10;50.60;;;;;;5041660;28;20032;-83
2022/05/27 12:01:08;;;;;;;5.10;1.13;;;25.40;51.00;;;;;;5064590;28;20036;-82
2022/05/27 12:03:39;;;;;;;0.80;0.73;;;25.30;51.70;;;;;;5060527;28;20029;-82
2022/05/27 12:06:11;;;;;;;2.28;0.93;;;24.90;52.20;;;;;;5049882;28;20031;-83
2022/05/27 12:08:48;;;;;;;0.68;0.68;;;24.80;52.70;;;;;;5072140;28;20025;-82
2022/05/27 12:11:19;;;;;;;1.27;0.70;;;24.80;52.70;;;;;;5079797;28;20115;-83
2022/05/27 12:13:55;;;;;;;2.00;0.95;;;24.90;52.10;;;;;;5079865;28;20039;-83
2022/05/27 12:16:31;;;;;;;5.10;0.93;;;25.20;51.20;;;;;;5061823;28;20029;-83
2022/05/27 12:19:06;;;;;;;1.60;1.27;;;25.40;50.60;;;;;;5059576;28;20029;-83
2022/05/27 12:21:38;;;;;;;2.92;1.17;;;25.60;49.90;;;;;;5060959;28;20025;-83
2022/05/27 12:24:10;;;;;;;2.40;1.05;;;25.70;50.10;;;;;;5059581;28;20025;-82
2022/05/27 12:26:37;;;;;;;1.58;0.63;;;25.90;49.70;;;;;;5059750;28;20044;-82
2022/05/27 12:29:07;;;;;;;0.93;0.80;;;26.30;49.60;;;;;;5060524;28;20039;-84
2022/05/27 12:31:34;;;;;;;0.82;0.70;;;26.10;49.60;;;;;;5066169;28;20025;-83
2022/05/27 12:34:28;;;;;;;3.10;1.08;;;25.60;51.10;;;;;;5064002;28;20244;-83
2022/05/27 12:36:55;;;;;;;4.15;0.88;;;25.40;51.10;;;;;;5076952;28;20332;-84
2022/05/27 12:39:28;;;;;;;2.45;0.70;;;25.60;50.70;;;;;;5050108;28;20028;-83
2022/05/27 12:42:07;;;;;;;1.77;0.98;;;25.90;49.40;;;;;;5066190;28;20024;-84
2022/05/27 12:44:33;;;;;;;0.63;0.63;;;25.80;50.10;;;;;;5064401;28;20048;-84
2022/05/27 12:47:01;;;;;;;1.85;0.82;;;25.90;49.60;;;;;;5062951;28;20029;-86
2022/05/27 12:49:37;;;;;;;1.20;0.65;;;26.10;49.80;;;;;;5058405;28;20025;-85
2022/05/27 12:52:27;;;;;;;1.95;0.90;;;26.20;50.00;;;;;;5059696;28;20025;-84
2022/05/27 12:54:53;;;;;;;1.35;0.80;;;26.30;49.50;;;;;;5059146;28;20465;-85
2022/05/27 13:03:33;;;;;;;3.25;1.23;;;25.70;51.10;;;;;;5061986;28;20027;-85
2022/05/27 13:06:19;;;;;;;3.53;0.90;;;25.70;50.90;;;;;;5067235;28;20021;-85
2022/05/27 13:09:10;;;;;;;1.85;0.85;;;25.70;50.70;;;;;;5059640;28;20029;-84
2022/05/27 13:11:38;;;;;;;1.35;0.80;;;25.80;50.80;;;;;;5064328;28;20027;-83
2022/05/27 13:14:04;;;;;;;1.75;0.88;;;25.90;51.50;;;;;;5081533;28;20522;-84
2022/05/27 13:16:36;;;;;;;1.13;0.70;;;26.20;50.70;;;;;;5082790;28;20052;-84
2022/05/27 13:19:07;;;;;;;5.45;1.00;;;26.10;50.70;;;;;;5082184;28;20029;-84
2022/05/27 13:21:44;;;;;;;;;;;26.00;51.60;;;;;;5083762;28;20021;-82
2022/05/27 13:24:13;;;;;;;4.93;0.70;;;25.90;52.10;;;;;;5065528;28;19960;-82
2022/05/27 13:26:45;;;;;;;1.67;0.80;;;26.10;51.50;;;;;;5066328;28;20025;-82
2022/05/27 13:29:38;;;;;;;1.48;0.82;;;25.80;51.50;;;;;;5046175;28;20028;-82
2022/05/27 13:32:09;;;;;;;1.42;0.93;;;25.50;52.30;;;;;;5063953;28;20024;-83
2022/05/27 13:35:08;;;;;;;1.38;0.90;;;25.50;52.30;;;;;;5045233;28;20060;-82
2022/05/27 13:37:34;;;;;;;3.30;1.08;;;25.60;52.30;;;;;;5063527;28;20028;-83
2022/05/27 13:40:05;;;;;;;2.25;0.90;;;25.60;51.90;;;;;;5082697;28;20028;-83
2022/05/27 13:42:38;;;;;;;1.80;1.05;;;25.40;51.90;;;;;;5057659;28;20017;-83
2022/05/27 13:45:16;;;;;;;1.05;0.95;;;25.20;52.70;;;;;;5045085;28;20082;-83
2022/05/27 13:47:46;;;;;;;6.47;1.15;;;25.30;53.30;;;;;;5062087;28;20025;-83
2022/05/27 13:50:33;;;;;;;2.15;1.23;;;25.00;53.20;;;;;;5061144;28;20108;-83
2022/05/27 13:53:15;;;;;;;8.13;1.45;;;24.60;54.90;;;;;;5061891;28;20048;-83
2022/05/27 13:55:41;;;;;;;1.25;0.85;;;24.30;55.20;;;;;;5042340;28;20033;-83